createdAt,value
2018-04-07T00:00:03.033Z,1016.98
2018-04-07T00:01:03.229Z,1016.96
2018-04-07T00:02:02.825Z,1016.99
2018-04-07T00:03:02.722Z,1016.91
2018-04-07T00:04:02.620Z,1016.93
2018-04-07T00:05:02.515Z,1016.92
2018-04-07T00:06:02.412Z,1016.91
2018-04-07T00:07:02.310Z,1016.87
2018-04-07T00:08:02.205Z,1016.89
2018-04-07T00:09:02.102Z,1016.88
2018-04-07T00:10:02.001Z,1016.87
2018-04-07T00:11:01.896Z,1016.89
2018-04-07T00:12:01.804Z,1016.89
2018-04-07T00:13:01.689Z,1016.87
2018-04-07T00:14:01.587Z,1016.89
2018-04-07T00:15:01.483Z,1016.94
2018-04-07T00:16:01.386Z,1016.98
2018-04-07T00:17:01.279Z,1016.93
2018-04-07T00:18:01.174Z,1016.88
2018-04-07T00:19:01.070Z,1016.88
2018-04-07T00:20:00.967Z,1016.88
2018-04-07T00:21:00.863Z,1016.89
2018-04-07T00:22:00.760Z,1016.88
2018-04-07T00:23:00.656Z,1016.91
2018-04-07T00:24:00.553Z,1016.94
2018-04-07T00:25:00.449Z,1016.95
2018-04-07T00:26:00.346Z,1016.92
2018-04-07T00:27:00.243Z,1016.89
2018-04-07T00:28:00.145Z,1016.89
2018-04-07T00:29:00.036Z,1016.91
2018-04-07T00:29:59.933Z,1016.93
2018-04-07T00:31:00.080Z,1016.93
2018-04-07T00:31:59.727Z,1016.86
2018-04-07T00:32:59.623Z,1016.88
2018-04-07T00:33:59.520Z,1016.85
2018-04-07T00:34:59.416Z,1016.85
2018-04-07T00:35:59.314Z,1016.88
2018-04-07T00:36:59.210Z,1016.85
2018-04-07T00:37:59.106Z,1016.85
2018-04-07T00:38:59.002Z,1016.84
2018-04-07T00:39:58.900Z,1016.81
2018-04-07T00:40:59.097Z,1016.72
2018-04-07T00:41:58.692Z,1016.74
2018-04-07T00:42:58.589Z,1016.70
2018-04-07T00:43:58.487Z,1016.74
2018-04-07T00:44:58.383Z,1016.71
2018-04-07T00:45:58.279Z,1016.72
2018-04-07T00:46:58.180Z,1016.65
2018-04-07T00:47:58.072Z,1016.70
2018-04-07T00:48:57.969Z,1016.68
2018-04-07T00:49:57.866Z,1016.63
2018-04-07T00:50:57.762Z,1016.61
2018-04-07T00:51:57.660Z,1016.57
2018-04-07T00:52:57.555Z,1016.64
2018-04-07T00:53:57.452Z,1016.60
2018-04-07T00:54:57.350Z,1016.64
2018-04-07T00:55:57.247Z,1016.64
2018-04-07T00:56:57.142Z,1016.61
2018-04-07T00:57:57.044Z,1016.60
2018-04-07T00:58:56.937Z,1016.61
2018-04-07T00:59:56.833Z,1016.57
2018-04-07T01:00:56.730Z,1016.56
2018-04-07T01:01:56.626Z,1016.55
2018-04-07T01:02:56.523Z,1016.57
2018-04-07T01:03:56.423Z,1016.59
2018-04-07T01:04:56.317Z,1016.53
2018-04-07T01:05:56.213Z,1016.54
2018-04-07T01:06:56.110Z,1016.58
2018-04-07T01:07:56.006Z,1016.54
2018-04-07T01:08:55.903Z,1016.47
2018-04-07T01:09:55.800Z,1016.48
2018-04-07T01:10:55.697Z,1016.47
2018-04-07T01:11:55.593Z,1016.42
2018-04-07T01:12:55.491Z,1016.39
2018-04-07T01:13:55.386Z,1016.37
2018-04-07T01:14:55.284Z,1016.35
2018-04-07T01:15:55.184Z,1016.41
2018-04-07T01:16:55.076Z,1016.36
2018-04-07T01:17:54.973Z,1016.36
2018-04-07T01:18:54.872Z,1016.31
2018-04-07T01:19:54.767Z,1016.36
2018-04-07T01:20:54.664Z,1016.28
2018-04-07T01:21:54.560Z,1016.30
2018-04-07T01:22:54.456Z,1016.28
2018-04-07T01:23:54.353Z,1016.30
2018-04-07T01:24:54.249Z,1016.31
2018-04-07T01:25:54.146Z,1016.35
2018-04-07T01:26:54.044Z,1016.34
2018-04-07T01:27:53.940Z,1016.35
2018-04-07T01:28:53.837Z,1016.36
2018-04-07T01:29:53.733Z,1016.39
2018-04-07T01:30:53.930Z,1016.35
2018-04-07T01:31:53.527Z,1016.37
2018-04-07T01:32:53.424Z,1016.41
2018-04-07T01:33:53.321Z,1016.31
2018-04-07T01:34:53.216Z,1016.34
2018-04-07T01:35:53.119Z,1016.33
2018-04-07T01:36:53.010Z,1016.36
2018-04-07T01:37:52.909Z,1016.34
2018-04-07T01:38:52.804Z,1016.40
2018-04-07T01:39:52.699Z,1016.33
2018-04-07T01:40:52.596Z,1016.33
2018-04-07T01:41:52.492Z,1016.36
2018-04-07T01:42:52.390Z,1016.33
2018-04-07T01:43:52.289Z,1016.35
2018-04-07T01:44:52.183Z,1016.27
2018-04-07T01:45:52.079Z,1016.32
2018-04-07T01:46:51.977Z,1016.32
2018-04-07T01:47:51.873Z,1016.32
2018-04-07T01:48:51.770Z,1016.31
2018-04-07T01:49:51.667Z,1016.30
2018-04-07T01:50:51.564Z,1016.25
2018-04-07T01:51:51.461Z,1016.19
2018-04-07T01:52:51.359Z,1016.19
2018-04-07T01:53:51.253Z,1016.20
2018-04-07T01:54:51.150Z,1016.19
2018-04-07T01:55:51.047Z,1016.25
2018-04-07T01:56:50.944Z,1016.20
2018-04-07T01:57:50.840Z,1016.25
2018-04-07T01:58:50.737Z,1016.20
2018-04-07T01:59:50.633Z,1016.18
2018-04-07T02:00:50.830Z,1016.13
2018-04-07T02:01:50.427Z,1016.16
2018-04-07T02:02:50.323Z,1016.14
2018-04-07T02:03:50.223Z,1016.22
2018-04-07T02:04:50.116Z,1016.22
2018-04-07T02:05:50.014Z,1016.20
2018-04-07T02:06:49.911Z,1016.20
2018-04-07T02:07:49.807Z,1016.16
2018-04-07T02:08:49.704Z,1016.21
2018-04-07T02:09:49.601Z,1016.22
2018-04-07T02:10:49.485Z,1016.22
2018-04-07T02:11:49.383Z,1016.17
2018-04-07T02:12:49.278Z,1016.17
2018-04-07T02:13:49.178Z,1016.20
2018-04-07T02:14:49.073Z,1016.20
2018-04-07T02:15:48.967Z,1016.22
2018-04-07T02:16:48.864Z,1016.21
2018-04-07T02:17:48.762Z,1016.21
2018-04-07T02:18:48.658Z,1016.22
2018-04-07T02:19:48.554Z,1016.21
2018-04-07T02:20:48.450Z,1016.26
2018-04-07T02:21:48.347Z,1016.25
2018-04-07T02:22:48.257Z,1016.29
2018-04-07T02:23:48.141Z,1016.26
2018-04-07T02:24:48.037Z,1016.33
2018-04-07T02:25:47.933Z,1016.33
2018-04-07T02:26:47.830Z,1016.31
2018-04-07T02:27:47.727Z,1016.25
2018-04-07T02:28:47.623Z,1016.27
2018-04-07T02:29:47.522Z,1016.25
2018-04-07T02:30:47.417Z,1016.27
2018-04-07T02:31:47.323Z,1016.22
2018-04-07T02:32:47.217Z,1016.30
2018-04-07T02:33:47.107Z,1016.30
2018-04-07T02:34:47.003Z,1016.32
2018-04-07T02:35:46.914Z,1016.23
2018-04-07T02:36:46.797Z,1016.27
2018-04-07T02:37:46.695Z,1016.27
2018-04-07T02:38:46.592Z,1016.22
2018-04-07T02:39:46.489Z,1016.22
2018-04-07T02:40:46.384Z,1016.25
2018-04-07T02:41:46.287Z,1016.25
2018-04-07T02:42:46.178Z,1016.27
2018-04-07T02:43:46.074Z,1016.26
2018-04-07T02:44:45.971Z,1016.29
2018-04-07T02:45:45.867Z,1016.31
2018-04-07T02:46:45.765Z,1016.27
2018-04-07T02:47:45.661Z,1016.31
2018-04-07T02:48:45.558Z,1016.33
2018-04-07T02:49:45.454Z,1016.27
2018-04-07T02:50:45.350Z,1016.24
2018-04-07T02:51:45.247Z,1016.26
2018-04-07T02:52:45.144Z,1016.26
2018-04-07T02:53:45.040Z,1016.31
2018-04-07T02:54:44.939Z,1016.29
2018-04-07T02:55:44.847Z,1016.25
2018-04-07T02:56:44.730Z,1016.23
2018-04-07T02:57:44.636Z,1016.22
2018-04-07T02:58:44.525Z,1016.24
2018-04-07T02:59:44.421Z,1016.21
2018-04-07T03:00:44.307Z,1016.21
2018-04-07T03:01:44.203Z,1016.23
2018-04-07T03:02:44.100Z,1016.18
2018-04-07T03:03:43.998Z,1016.13
2018-04-07T03:04:43.904Z,1016.12
2018-04-07T03:05:44.088Z,1016.09
2018-04-07T03:06:43.686Z,1016.09
2018-04-07T03:07:43.583Z,1016.07
2018-04-07T03:08:43.479Z,1016.08
2018-04-07T03:09:43.378Z,1016.00
2018-04-07T03:10:43.272Z,1016.05
2018-04-07T03:11:43.170Z,1015.95
2018-04-07T03:12:43.065Z,1016.03
2018-04-07T03:13:42.963Z,1015.91
2018-04-07T03:14:42.860Z,1015.98
2018-04-07T03:15:42.756Z,1015.92
2018-04-07T03:16:42.651Z,1015.99
2018-04-07T03:17:42.549Z,1015.92
2018-04-07T03:18:42.446Z,1015.91
2018-04-07T03:19:42.342Z,1015.95
2018-04-07T03:20:42.243Z,1015.89
2018-04-07T03:21:42.136Z,1015.98
2018-04-07T03:22:42.032Z,1015.93
2018-04-07T03:23:41.928Z,1016.00
2018-04-07T03:24:41.825Z,1015.91
2018-04-07T03:25:41.725Z,1015.93
2018-04-07T03:26:41.619Z,1015.89
2018-04-07T03:27:41.516Z,1015.82
2018-04-07T03:28:41.413Z,1015.93
2018-04-07T03:29:41.309Z,1015.83
2018-04-07T03:30:41.194Z,1015.87
2018-04-07T03:31:41.091Z,1015.84
2018-04-07T03:32:40.987Z,1015.78
2018-04-07T03:33:40.884Z,1015.78
2018-04-07T03:34:40.792Z,1015.74
2018-04-07T03:35:40.677Z,1015.83
2018-04-07T03:36:40.574Z,1015.74
2018-04-07T03:37:40.472Z,1015.71
2018-04-07T03:38:40.366Z,1015.78
2018-04-07T03:39:40.262Z,1015.74
2018-04-07T03:40:40.162Z,1015.75
2018-04-07T03:41:40.056Z,1015.78
2018-04-07T03:42:39.952Z,1015.81
2018-04-07T03:43:39.851Z,1015.74
2018-04-07T03:44:39.746Z,1015.85
2018-04-07T03:45:39.643Z,1015.81
2018-04-07T03:46:39.539Z,1015.83
2018-04-07T03:47:39.436Z,1015.85
2018-04-07T03:48:39.332Z,1015.80
2018-04-07T03:49:39.231Z,1015.79
2018-04-07T03:50:39.141Z,1015.78
2018-04-07T03:51:39.025Z,1015.79
2018-04-07T03:52:38.919Z,1015.74
2018-04-07T03:53:38.816Z,1015.75
2018-04-07T03:54:38.713Z,1015.75
2018-04-07T03:55:38.609Z,1015.78
2018-04-07T03:56:38.506Z,1015.73
2018-04-07T03:57:38.403Z,1015.72
2018-04-07T03:58:38.299Z,1015.64
2018-04-07T03:59:38.196Z,1015.76
2018-04-07T04:00:38.093Z,1015.68
2018-04-07T04:01:37.989Z,1015.63
2018-04-07T04:02:37.875Z,1015.63
2018-04-07T04:03:37.774Z,1015.70
2018-04-07T04:04:37.668Z,1015.68
2018-04-07T04:05:37.865Z,1015.65
2018-04-07T04:06:37.460Z,1015.65
2018-04-07T04:07:37.357Z,1015.62
2018-04-07T04:08:37.254Z,1015.69
2018-04-07T04:09:37.151Z,1015.69
2018-04-07T04:10:37.048Z,1015.66
2018-04-07T04:11:36.944Z,1015.57
2018-04-07T04:12:36.841Z,1015.61
2018-04-07T04:13:36.741Z,1015.63
2018-04-07T04:14:36.635Z,1015.53
2018-04-07T04:15:36.531Z,1015.58
2018-04-07T04:16:36.428Z,1015.53
2018-04-07T04:17:36.324Z,1015.55
2018-04-07T04:18:36.221Z,1015.63
2018-04-07T04:19:36.122Z,1015.53
2018-04-07T04:20:36.014Z,1015.56
2018-04-07T04:21:35.911Z,1015.59
2018-04-07T04:22:35.812Z,1015.48
2018-04-07T04:23:35.705Z,1015.61
2018-04-07T04:24:35.601Z,1015.60
2018-04-07T04:25:35.497Z,1015.55
2018-04-07T04:26:35.395Z,1015.54
2018-04-07T04:27:35.292Z,1015.52
2018-04-07T04:28:35.189Z,1015.54
2018-04-07T04:29:35.094Z,1015.61
2018-04-07T04:30:34.969Z,1015.57
2018-04-07T04:31:34.867Z,1015.53
2018-04-07T04:32:34.762Z,1015.50
2018-04-07T04:33:34.658Z,1015.43
2018-04-07T04:34:34.555Z,1015.48
2018-04-07T04:35:34.452Z,1015.40
2018-04-07T04:36:34.348Z,1015.42
2018-04-07T04:37:34.245Z,1015.40
2018-04-07T04:38:34.141Z,1015.38
2018-04-07T04:39:34.038Z,1015.45
2018-04-07T04:40:33.934Z,1015.46
2018-04-07T04:41:33.831Z,1015.41
2018-04-07T04:42:33.745Z,1015.43
2018-04-07T04:43:33.624Z,1015.35
2018-04-07T04:44:33.521Z,1015.44
2018-04-07T04:45:33.417Z,1015.40
2018-04-07T04:46:33.314Z,1015.37
2018-04-07T04:47:33.211Z,1015.41
2018-04-07T04:48:33.109Z,1015.36
2018-04-07T04:49:33.004Z,1015.51
2018-04-07T04:50:32.901Z,1015.33
2018-04-07T04:51:32.798Z,1015.35
2018-04-07T04:52:32.694Z,1015.36
2018-04-07T04:53:32.591Z,1015.38
2018-04-07T04:54:32.501Z,1015.44
2018-04-07T04:55:32.384Z,1015.36
2018-04-07T04:56:32.281Z,1015.39
2018-04-07T04:57:32.177Z,1015.40
2018-04-07T04:58:32.075Z,1015.37
2018-04-07T04:59:31.971Z,1015.42
2018-04-07T05:00:32.167Z,1015.37
2018-04-07T05:01:31.764Z,1015.41
2018-04-07T05:02:31.661Z,1015.44
2018-04-07T05:03:31.558Z,1015.39
2018-04-07T05:04:31.457Z,1015.39
2018-04-07T05:05:31.364Z,1015.37
2018-04-07T05:06:31.264Z,1015.36
2018-04-07T05:07:31.159Z,1015.29
2018-04-07T05:08:31.054Z,1015.40
2018-04-07T05:09:30.952Z,1015.33
2018-04-07T05:10:30.848Z,1015.22
2018-04-07T05:11:30.745Z,1015.24
2018-04-07T05:12:30.642Z,1015.33
2018-04-07T05:13:30.538Z,1015.26
2018-04-07T05:14:30.436Z,1015.32
2018-04-07T05:15:30.343Z,1015.35
2018-04-07T05:16:30.239Z,1015.29
2018-04-07T05:17:30.137Z,1015.30
2018-04-07T05:18:30.033Z,1015.23
2018-04-07T05:19:29.930Z,1015.27
2018-04-07T05:20:30.128Z,1015.31
2018-04-07T05:21:29.736Z,1015.32
2018-04-07T05:22:29.621Z,1015.23
2018-04-07T05:23:29.530Z,1015.15
2018-04-07T05:24:29.429Z,1015.11
2018-04-07T05:25:29.323Z,1015.20
2018-04-07T05:26:29.225Z,1015.09
2018-04-07T05:27:29.119Z,1015.20
2018-04-07T05:28:29.027Z,1015.22
2018-04-07T05:29:28.921Z,1015.28
2018-04-07T05:30:28.818Z,1015.13
2018-04-07T05:31:28.715Z,1015.17
2018-04-07T05:32:28.611Z,1015.26
2018-04-07T05:33:28.523Z,1015.19
2018-04-07T05:34:28.423Z,1015.31
2018-04-07T05:35:28.316Z,1015.23
2018-04-07T05:36:28.211Z,1015.33
2018-04-07T05:37:28.109Z,1015.28
2018-04-07T05:38:28.020Z,1015.28
2018-04-07T05:39:27.915Z,1015.24
2018-04-07T05:40:27.810Z,1015.33
2018-04-07T05:41:27.706Z,1015.22
2018-04-07T05:42:27.603Z,1015.23
2018-04-07T05:43:27.513Z,1015.26
2018-04-07T05:44:27.409Z,1015.25
2018-04-07T05:45:27.307Z,1015.19
2018-04-07T05:46:27.203Z,1015.25
2018-04-07T05:47:27.113Z,1015.28
2018-04-07T05:48:27.008Z,1015.25
2018-04-07T05:49:26.905Z,1015.26
2018-04-07T05:50:26.815Z,1015.22
2018-04-07T05:51:26.700Z,1015.25
2018-04-07T05:52:26.610Z,1015.30
2018-04-07T05:53:26.504Z,1015.16
2018-04-07T05:54:26.406Z,1015.15
2018-04-07T05:55:26.310Z,1015.14
2018-04-07T05:56:26.220Z,1015.17
2018-04-07T05:57:26.104Z,1015.15
2018-04-07T05:58:26.005Z,1015.15
2018-04-07T05:59:25.909Z,1015.19
2018-04-07T06:00:25.807Z,1015.24
2018-04-07T06:01:25.704Z,1015.21
2018-04-07T06:02:25.615Z,1015.28
2018-04-07T06:03:25.522Z,1015.28
2018-04-07T06:04:25.405Z,1015.20
2018-04-07T06:05:25.315Z,1015.28
2018-04-07T06:06:25.212Z,1015.16
2018-04-07T06:07:25.109Z,1015.31
2018-04-07T06:08:25.016Z,1015.34
2018-04-07T06:09:24.913Z,1015.32
2018-04-07T06:10:24.823Z,1015.25
2018-04-07T06:11:24.720Z,1015.26
2018-04-07T06:12:24.617Z,1015.29
2018-04-07T06:13:24.513Z,1015.26
2018-04-07T06:14:24.421Z,1015.34
2018-04-07T06:15:24.319Z,1015.32
2018-04-07T06:16:24.230Z,1015.39
2018-04-07T06:17:24.125Z,1015.34
2018-04-07T06:18:24.022Z,1015.38
2018-04-07T06:19:23.930Z,1015.37
2018-04-07T06:20:23.827Z,1015.34
2018-04-07T06:21:23.736Z,1015.34
2018-04-07T06:22:23.633Z,1015.29
2018-04-07T06:23:23.530Z,1015.23
2018-04-07T06:24:23.441Z,1015.25
2018-04-07T06:25:23.336Z,1015.25
2018-04-07T06:26:23.245Z,1015.26
2018-04-07T06:27:23.144Z,1015.27
2018-04-07T06:28:23.052Z,1015.25
2018-04-07T06:29:22.948Z,1015.27
2018-04-07T06:30:23.094Z,1015.26
2018-04-07T06:31:22.754Z,1015.21
2018-04-07T06:32:22.650Z,1015.20
2018-04-07T06:33:22.558Z,1015.17
2018-04-07T06:34:22.455Z,1015.17
2018-04-07T06:35:22.367Z,1015.17
2018-04-07T06:36:22.264Z,1015.14
2018-04-07T06:37:22.170Z,1015.15
2018-04-07T06:38:22.067Z,1015.16
2018-04-07T06:39:21.964Z,1015.13
2018-04-07T06:40:22.179Z,1015.12
2018-04-07T06:41:21.769Z,1015.09
2018-04-07T06:42:21.680Z,1015.05
2018-04-07T06:43:21.575Z,1015.07
2018-04-07T06:44:21.485Z,1015.07
2018-04-07T06:45:21.382Z,1015.03
2018-04-07T06:46:21.290Z,1014.99
2018-04-07T06:47:21.187Z,1014.97
2018-04-07T06:48:21.085Z,1014.96
2018-04-07T06:49:20.993Z,1014.97
2018-04-07T06:50:20.889Z,1014.99
2018-04-07T06:51:20.799Z,1014.98
2018-04-07T06:52:20.695Z,1015.04
2018-04-07T06:53:20.594Z,1015.01
2018-04-07T06:54:20.502Z,1015.09
2018-04-07T06:55:20.399Z,1015.09
2018-04-07T06:56:20.306Z,1015.07
2018-04-07T06:57:20.204Z,1015.00
2018-04-07T06:58:20.102Z,1015.03
2018-04-07T06:59:20.014Z,1015.11
2018-04-07T07:00:20.156Z,1015.07
2018-04-07T07:01:19.815Z,1015.00
2018-04-07T07:02:19.712Z,1014.98
2018-04-07T07:03:19.622Z,1015.00
2018-04-07T07:04:19.518Z,1014.87
2018-04-07T07:05:19.427Z,1014.93
2018-04-07T07:06:19.324Z,1014.95
2018-04-07T07:07:19.234Z,1014.96
2018-04-07T07:08:19.129Z,1014.90
2018-04-07T07:09:19.038Z,1014.91
2018-04-07T07:10:18.936Z,1014.89
2018-04-07T07:11:18.846Z,1014.90
2018-04-07T07:12:18.742Z,1014.90
2018-04-07T07:13:18.651Z,1014.88
2018-04-07T07:14:18.549Z,1014.88
2018-04-07T07:15:18.456Z,1014.85
2018-04-07T07:16:18.365Z,1014.90
2018-04-07T07:17:18.263Z,1014.88
2018-04-07T07:18:18.186Z,1014.86
2018-04-07T07:19:18.068Z,1014.93
2018-04-07T07:20:17.977Z,1014.86
2018-04-07T07:21:17.888Z,1014.84
2018-04-07T07:22:17.784Z,1014.87
2018-04-07T07:23:17.692Z,1014.91
2018-04-07T07:24:17.595Z,1014.86
2018-04-07T07:25:17.499Z,1014.94
2018-04-07T07:26:17.396Z,1014.89
2018-04-07T07:27:17.317Z,1014.92
2018-04-07T07:28:17.203Z,1014.85
2018-04-07T07:29:17.111Z,1014.91
2018-04-07T07:30:17.010Z,1014.92
2018-04-07T07:31:16.915Z,1014.87
2018-04-07T07:32:16.811Z,1014.81
2018-04-07T07:33:16.721Z,1014.85
2018-04-07T07:34:16.621Z,1014.79
2018-04-07T07:35:16.516Z,1014.81
2018-04-07T07:36:16.426Z,1014.78
2018-04-07T07:37:16.324Z,1014.66
2018-04-07T07:38:16.230Z,1014.71
2018-04-07T07:39:16.128Z,1014.64
2018-04-07T07:40:16.035Z,1014.61
2018-04-07T07:41:15.931Z,1014.69
2018-04-07T07:42:15.828Z,1014.67
2018-04-07T07:43:15.739Z,1014.72
2018-04-07T07:44:15.636Z,1014.67
2018-04-07T07:45:15.543Z,1014.73
2018-04-07T07:46:15.440Z,1014.62
2018-04-07T07:47:15.336Z,1014.72
2018-04-07T07:48:15.250Z,1014.70
2018-04-07T07:49:15.143Z,1014.73
2018-04-07T07:50:15.041Z,1014.72
2018-04-07T07:51:14.950Z,1014.72
2018-04-07T07:52:14.846Z,1014.66
2018-04-07T07:53:14.756Z,1014.66
2018-04-07T07:54:14.651Z,1014.73
2018-04-07T07:55:14.548Z,1014.65
2018-04-07T07:56:14.470Z,1014.58
2018-04-07T07:57:14.354Z,1014.63
2018-04-07T07:58:14.252Z,1014.61
2018-04-07T07:59:14.163Z,1014.58
2018-04-07T08:00:14.058Z,1014.55
2018-04-07T08:01:13.955Z,1014.59
2018-04-07T08:02:13.867Z,1014.57
2018-04-07T08:03:13.764Z,1014.49
2018-04-07T08:04:13.658Z,1014.54
2018-04-07T08:05:13.566Z,1014.59
2018-04-07T08:06:13.466Z,1014.59
2018-04-07T08:07:13.370Z,1014.61
2018-04-07T08:08:13.268Z,1014.64
2018-04-07T08:09:13.181Z,1014.63
2018-04-07T08:10:13.073Z,1014.57
2018-04-07T08:11:12.971Z,1014.56
2018-04-07T08:12:12.868Z,1014.50
2018-04-07T08:13:12.775Z,1014.55
2018-04-07T08:14:12.672Z,1014.59
2018-04-07T08:15:12.571Z,1014.57
2018-04-07T08:16:12.479Z,1014.59
2018-04-07T08:17:12.376Z,1014.54
2018-04-07T08:18:12.284Z,1014.57
2018-04-07T08:19:12.181Z,1014.63
2018-04-07T08:20:12.078Z,1014.61
2018-04-07T08:21:11.987Z,1014.54
2018-04-07T08:22:11.885Z,1014.46
2018-04-07T08:23:11.792Z,1014.61
2018-04-07T08:24:11.689Z,1014.61
2018-04-07T08:25:11.593Z,1014.62
2018-04-07T08:26:11.499Z,1014.55
2018-04-07T08:27:11.393Z,1014.61
2018-04-07T08:28:11.289Z,1014.53
2018-04-07T08:29:11.198Z,1014.49
2018-04-07T08:30:11.097Z,1014.58
2018-04-07T08:31:11.004Z,1014.48
2018-04-07T08:32:10.911Z,1014.52
2018-04-07T08:33:10.798Z,1014.59
2018-04-07T08:34:10.705Z,1014.44
2018-04-07T08:35:10.602Z,1014.44
2018-04-07T08:36:10.517Z,1014.48
2018-04-07T08:37:14.776Z,1014.42
2018-04-07T08:38:10.306Z,1014.42
2018-04-07T08:39:10.214Z,1014.48
2018-04-07T08:40:10.111Z,1014.42
2018-04-07T08:41:10.021Z,1014.45
2018-04-07T08:42:09.917Z,1014.39
2018-04-07T08:43:09.814Z,1014.38
2018-04-07T08:44:09.723Z,1014.35
2018-04-07T08:45:09.625Z,1014.32
2018-04-07T08:46:09.529Z,1014.33
2018-04-07T08:47:09.426Z,1014.33
2018-04-07T08:48:09.323Z,1014.19
2018-04-07T08:49:09.230Z,1014.29
2018-04-07T08:50:09.128Z,1014.31
2018-04-07T08:51:09.045Z,1014.33
2018-04-07T08:52:08.935Z,1014.10
2018-04-07T08:53:08.831Z,1014.21
2018-04-07T08:54:08.739Z,1014.31
2018-04-07T08:55:08.639Z,1014.18
2018-04-07T08:56:08.547Z,1014.25
2018-04-07T08:57:08.442Z,1014.30
2018-04-07T08:58:08.350Z,1014.25
2018-04-07T08:59:08.250Z,1014.21
2018-04-07T09:00:08.157Z,1014.13
2018-04-07T09:01:08.055Z,1014.25
2018-04-07T09:02:07.951Z,1014.23
2018-04-07T09:03:07.860Z,1014.16
2018-04-07T09:04:07.756Z,1014.08
2018-04-07T09:05:07.658Z,1014.13
2018-04-07T09:06:07.567Z,1014.18
2018-04-07T09:07:07.459Z,1014.16
2018-04-07T09:08:07.367Z,1014.23
2018-04-07T09:09:07.265Z,1014.16
2018-04-07T09:10:07.176Z,1014.16
2018-04-07T09:11:07.071Z,1014.08
2018-04-07T09:12:06.979Z,1014.35
2018-04-07T09:13:06.876Z,1014.15
2018-04-07T09:14:06.773Z,1014.13
2018-04-07T09:15:06.684Z,1014.11
2018-04-07T09:16:06.579Z,1014.13
2018-04-07T09:17:06.487Z,1014.07
2018-04-07T09:18:06.384Z,1014.07
2018-04-07T09:19:06.294Z,1013.99
2018-04-07T09:20:06.190Z,1014.02
2018-04-07T09:21:06.087Z,1014.03
2018-04-07T09:22:05.997Z,1013.89
2018-04-07T09:23:05.892Z,1014.04
2018-04-07T09:24:05.804Z,1014.05
2018-04-07T09:25:05.699Z,1014.08
2018-04-07T09:26:05.617Z,1013.99
2018-04-07T09:27:05.505Z,1014.02
2018-04-07T09:28:05.417Z,1014.01
2018-04-07T09:29:05.312Z,1014.06
2018-04-07T09:30:05.210Z,1014.05
2018-04-07T09:31:05.116Z,1014.06
2018-04-07T09:32:05.014Z,1014.12
2018-04-07T09:33:04.923Z,1014.11
2018-04-07T09:34:04.821Z,1014.12
2018-04-07T09:35:04.732Z,1014.07
2018-04-07T09:36:04.625Z,1014.10
2018-04-07T09:37:04.534Z,1014.10
2018-04-07T09:38:04.432Z,1014.01
2018-04-07T09:39:04.340Z,1014.08
2018-04-07T09:40:04.235Z,1013.95
2018-04-07T09:41:04.146Z,1014.01
2018-04-07T09:42:04.090Z,1014.01
2018-04-07T09:43:03.951Z,1014.04
2018-04-07T09:44:03.848Z,1014.00
2018-04-07T09:45:03.759Z,1013.99
2018-04-07T09:46:03.655Z,1013.99
2018-04-07T09:47:03.576Z,1013.94
2018-04-07T09:48:03.462Z,1013.88
2018-04-07T09:49:03.370Z,1013.92
2018-04-07T09:50:03.278Z,1013.86
2018-04-07T09:51:03.176Z,1013.93
2018-04-07T09:52:03.084Z,1013.92
2018-04-07T09:53:02.982Z,1013.79
2018-04-07T09:54:02.890Z,1013.95
2018-04-07T09:55:02.789Z,1013.72
2018-04-07T09:56:02.700Z,1013.92
2018-04-07T09:57:02.605Z,1013.91
2018-04-07T09:58:02.504Z,1013.87
2018-04-07T09:59:02.411Z,1013.83
2018-04-07T10:00:02.309Z,1013.83
2018-04-07T10:01:02.216Z,1013.76
2018-04-07T10:02:02.115Z,1013.81
2018-04-07T10:03:02.023Z,1013.80
2018-04-07T10:04:01.935Z,1013.73
2018-04-07T10:05:01.832Z,1013.72
2018-04-07T10:06:01.740Z,1013.81
2018-04-07T10:07:01.652Z,1013.72
2018-04-07T10:08:01.544Z,1013.77
2018-04-07T10:09:01.454Z,1013.83
2018-04-07T10:10:01.356Z,1013.80
2018-04-07T10:11:01.247Z,1013.86
2018-04-07T10:12:01.155Z,1013.77
2018-04-07T10:13:01.065Z,1013.70
2018-04-07T10:14:00.962Z,1013.73
2018-04-07T10:15:00.870Z,1013.66
2018-04-07T10:16:00.772Z,1013.59
2018-04-07T10:17:00.677Z,1013.64
2018-04-07T10:18:00.574Z,1013.62
2018-04-07T10:19:00.482Z,1013.57
2018-04-07T10:20:00.392Z,1013.64
2018-04-07T10:21:00.288Z,1013.61
2018-04-07T10:22:00.197Z,1013.59
2018-04-07T10:23:00.095Z,1013.57
2018-04-07T10:24:00.004Z,1013.52
2018-04-07T10:24:59.901Z,1013.53
2018-04-07T10:25:59.808Z,1013.52
2018-04-07T10:26:59.718Z,1013.55
2018-04-07T10:27:59.615Z,1013.61
2018-04-07T10:28:59.524Z,1013.55
2018-04-07T10:29:59.420Z,1013.38
2018-04-07T10:30:59.330Z,1013.46
2018-04-07T10:31:59.239Z,1013.45
2018-04-07T10:32:59.136Z,1013.51
2018-04-07T10:33:59.045Z,1013.49
2018-04-07T10:34:58.942Z,1013.45
2018-04-07T10:35:58.850Z,1013.42
2018-04-07T10:36:58.749Z,1013.53
2018-04-07T10:37:58.657Z,1013.43
2018-04-07T10:38:58.566Z,1013.45
2018-04-07T10:39:58.712Z,1013.31
2018-04-07T10:40:58.372Z,1013.36
2018-04-07T10:41:58.273Z,1013.42
2018-04-07T10:42:58.184Z,1013.28
2018-04-07T10:43:58.088Z,1013.35
2018-04-07T10:44:57.984Z,1013.29
2018-04-07T10:45:57.893Z,1013.25
2018-04-07T10:46:57.790Z,1013.31
2018-04-07T10:47:57.699Z,1013.30
2018-04-07T10:48:57.607Z,1013.28
2018-04-07T10:49:57.503Z,1013.29
2018-04-07T10:50:57.419Z,1013.31
2018-04-07T10:51:57.312Z,1013.27
2018-04-07T10:52:57.218Z,1013.11
2018-04-07T10:53:57.129Z,1013.28
2018-04-07T10:54:57.026Z,1013.35
2018-04-07T10:55:56.934Z,1013.24
2018-04-07T10:56:56.846Z,1013.13
2018-04-07T10:57:56.741Z,1013.14
2018-04-07T10:58:56.649Z,1013.39
2018-04-07T10:59:56.846Z,1013.17
2018-04-07T11:00:56.455Z,1013.09
2018-04-07T11:01:56.363Z,1013.07
2018-04-07T11:02:56.260Z,1013.12
2018-04-07T11:03:56.170Z,1013.13
2018-04-07T11:04:56.067Z,1013.04
2018-04-07T11:05:55.988Z,1013.01
2018-04-07T11:06:55.885Z,1012.99
2018-04-07T11:07:55.786Z,1012.99
2018-04-07T11:08:55.692Z,1012.96
2018-04-07T11:09:55.589Z,1012.95
2018-04-07T11:10:55.498Z,1012.97
2018-04-07T11:11:55.408Z,1012.99
2018-04-07T11:12:55.303Z,1012.95
2018-04-07T11:13:55.212Z,1012.81
2018-04-07T11:14:55.121Z,1013.02
2018-04-07T11:15:55.021Z,1012.87
2018-04-07T11:16:54.928Z,1012.96
2018-04-07T11:17:54.839Z,1013.00
2018-04-07T11:18:54.734Z,1012.99
2018-04-07T11:19:54.892Z,1012.98
2018-04-07T11:20:54.550Z,1012.93
2018-04-07T11:21:54.450Z,1012.88
2018-04-07T11:22:54.357Z,1012.87
2018-04-07T11:23:54.266Z,1012.90
2018-04-07T11:24:54.162Z,1012.84
2018-04-07T11:25:54.075Z,1012.90
2018-04-07T11:26:53.970Z,1012.90
2018-04-07T11:27:53.877Z,1012.91
2018-04-07T11:28:53.788Z,1012.80
2018-04-07T11:29:53.688Z,1012.86
2018-04-07T11:30:53.593Z,1012.89
2018-04-07T11:31:53.502Z,1012.93
2018-04-07T11:32:53.398Z,1012.86
2018-04-07T11:33:53.309Z,1012.89
2018-04-07T11:34:53.218Z,1012.84
2018-04-07T11:35:53.115Z,1012.86
2018-04-07T11:36:53.023Z,1012.80
2018-04-07T11:37:52.932Z,1012.82
2018-04-07T11:38:52.830Z,1012.83
2018-04-07T11:39:52.987Z,1012.81
2018-04-07T11:40:52.648Z,1012.76
2018-04-07T11:41:52.544Z,1012.69
2018-04-07T11:42:52.452Z,1012.74
2018-04-07T11:43:52.362Z,1012.68
2018-04-07T11:44:52.259Z,1012.69
2018-04-07T11:45:52.167Z,1012.65
2018-04-07T11:46:52.078Z,1012.69
2018-04-07T11:47:51.985Z,1012.71
2018-04-07T11:48:51.885Z,1012.50
2018-04-07T11:49:51.792Z,1012.52
2018-04-07T11:50:51.701Z,1012.61
2018-04-07T11:51:51.598Z,1012.57
2018-04-07T11:52:51.508Z,1012.61
2018-04-07T11:53:51.415Z,1012.53
2018-04-07T11:54:51.312Z,1012.62
2018-04-07T11:55:51.222Z,1012.57
2018-04-07T11:56:51.131Z,1012.53
2018-04-07T11:57:51.027Z,1012.52
2018-04-07T11:58:50.938Z,1012.50
2018-04-07T11:59:51.146Z,1012.21
2018-04-07T12:00:50.744Z,1012.45
2018-04-07T12:01:50.652Z,1012.40
2018-04-07T12:02:50.561Z,1012.33
2018-04-07T12:03:50.480Z,1012.36